sensor_id;sensor_type;location;lat;lon;timestamp;pressure;altitude;pressure_sealevel;temperature;humidity
51928;BME280;37953;52.806;18.270;2022-08-03T00:01:42;100833.91;;;20.91;100.00
51928;BME280;37953;52.806;18.270;2022-08-03T00:04:10;100833.13;;;20.88;100.00
51928;BME280;37953;52.806;18.270;2022-08-03T00:06:36;100824.41;;;20.86;100.00
51928;BME280;37953;52.806;18.270;2022-08-03T00:09:03;100828.88;;;20.84;100.00
51928;BME280;37953;52.806;18.270;2022-08-03T00:11:30;100826.22;;;20.84;100.00
51928;BME280;37953;52.806;18.270;2022-08-03T00:13:56;100835.81;;;20.86;100.00
51928;BME280;37953;52.806;18.270;2022-08-03T00:16:22;100834.03;;;20.87;100.00
51928;BME280;37953;52.806;18.270;2022-08-03T00:18:54;100835.78;;;20.88;100.00
51928;BME280;37953;52.806;18.270;2022-08-03T00:21:23;100835.00;;;20.84;100.00
51928;BME280;37953;52.806;18.270;2022-08-03T00:23:49;100839.38;;;20.85;100.00
51928;BME280;37953;52.806;18.270;2022-08-03T00:26:15;100836.75;;;20.85;100.00
51928;BME280;37953;52.806;18.270;2022-08-03T00:28:41;100831.50;;;20.84;100.00
51928;BME280;37953;52.806;18.270;2022-08-03T00:31:07;100833.28;;;20.83;100.00
51928;BME280;37953;52.806;18.270;2022-08-03T00:33:34;100831.63;;;20.81;100.00
51928;BME280;37953;52.806;18.270;2022-08-03T00:36:00;100832.47;;;20.81;100.00
51928;BME280;37953;52.806;18.270;2022-08-03T00:38:26;100829.00;;;20.81;100.00
51928;BME280;37953;52.806;18.270;2022-08-03T00:40:52;100828.09;;;20.80;100.00
51928;BME280;37953;52.806;18.270;2022-08-03T00:43:17;100827.28;;;20.78;100.00
51928;BME280;37953;52.806;18.270;2022-08-03T00:45:43;100823.78;;;20.78;100.00
51928;BME280;37953;52.806;18.270;2022-08-03T00:48:11;100824.66;;;20.78;100.00
51928;BME280;37953;52.806;18.270;2022-08-03T00:50:41;100819.38;;;20.78;100.00
51928;BME280;37953;52.806;18.270;2022-08-03T00:53:14;100824.66;;;20.78;100.00
51928;BME280;37953;52.806;18.270;2022-08-03T00:55:41;100825.56;;;20.77;100.00
51928;BME280;37953;52.806;18.270;2022-08-03T00:58:07;100817.66;;;20.77;100.00
51928;BME280;37953;52.806;18.270;2022-08-03T01:00:37;100830.03;;;20.75;100.00
51928;BME280;37953;52.806;18.270;2022-08-03T01:03:05;100825.75;;;20.72;100.00
51928;BME280;37953;52.806;18.270;2022-08-03T01:09:22;100824.94;;;20.70;100.00
51928;BME280;37953;52.806;18.270;2022-08-03T01:11:42;100821.50;;;20.67;100.00
51928;BME280;37953;52.806;18.270;2022-08-03T01:14:17;100821.72;;;20.61;100.00
51928;BME280;37953;52.806;18.270;2022-08-03T01:16:58;100820.09;;;20.55;100.00
51928;BME280;37953;52.806;18.270;2022-08-03T01:19:52;100820.91;;;20.57;100.00
51928;BME280;37953;52.806;18.270;2022-08-03T01:31:06;100810.09;;;20.38;100.00
51928;BME280;37953;52.806;18.270;2022-08-03T01:33:36;100817.34;;;20.31;100.00
51928;BME280;37953;52.806;18.270;2022-08-03T01:36:04;100815.09;;;20.47;100.00
51928;BME280;37953;52.806;18.270;2022-08-03T01:38:41;100813.84;;;20.31;100.00
51928;BME280;37953;52.806;18.270;2022-08-03T01:41:20;100816.81;;;20.22;100.00
51928;BME280;37953;52.806;18.270;2022-08-03T01:43:48;100820.44;;;20.18;100.00
51928;BME280;37953;52.806;18.270;2022-08-03T01:46:21;100815.31;;;20.13;100.00
51928;BME280;37953;52.806;18.270;2022-08-03T01:48:50;100816.19;;;20.13;100.00
51928;BME280;37953;52.806;18.270;2022-08-03T01:51:22;100811.75;;;20.14;100.00
51928;BME280;37953;52.806;18.270;2022-08-03T01:53:54;100805.63;;;20.13;100.00
51928;BME280;37953;52.806;18.270;2022-08-03T01:56:23;100810.94;;;20.12;100.00
51928;BME280;37953;52.806;18.270;2022-08-03T01:58:55;100810.91;;;20.13;100.00
51928;BME280;37953;52.806;18.270;2022-08-03T02:01:24;100810.94;;;20.12;100.00
51928;BME280;37953;52.806;18.270;2022-08-03T02:03:51;100808.31;;;20.12;100.00
51928;BME280;37953;52.806;18.270;2022-08-03T02:06:31;100813.56;;;20.12;100.00
51928;BME280;37953;52.806;18.270;2022-08-03T02:08:59;100804.97;;;20.07;100.00
51928;BME280;37953;52.806;18.270;2022-08-03T02:11:32;100814.53;;;20.09;100.00
51928;BME280;37953;52.806;18.270;2022-08-03T02:14:02;100805.03;;;20.04;100.00
51928;BME280;37953;52.806;18.270;2022-08-03T02:16:30;100799.09;;;19.97;100.00
51928;BME280;37953;52.806;18.270;2022-08-03T02:19:00;100796.50;;;19.96;100.00
51928;BME280;37953;52.806;18.270;2022-08-03T02:21:32;100802.59;;;19.98;100.00
51928;BME280;37953;52.806;18.270;2022-08-03T02:24:00;100802.66;;;19.96;100.00
51928;BME280;37953;52.806;18.270;2022-08-03T02:26:28;100803.56;;;19.95;100.00
51928;BME280;37953;52.806;18.270;2022-08-03T02:28:58;100803.66;;;19.92;100.00
51928;BME280;37953;52.806;18.270;2022-08-03T02:31:28;100805.38;;;19.93;100.00
51928;BME280;37953;52.806;18.270;2022-08-03T02:34:00;100808.94;;;19.92;100.00
51928;BME280;37953;52.806;18.270;2022-08-03T02:36:29;100804.50;;;19.92;100.00
51928;BME280;37953;52.806;18.270;2022-08-03T02:38:58;100809.78;;;19.92;100.00
51928;BME280;37953;52.806;18.270;2022-08-03T02:41:36;100808.00;;;19.93;100.00
51928;BME280;37953;52.806;18.270;2022-08-03T02:44:07;100801.03;;;19.92;100.00
51928;BME280;37953;52.806;18.270;2022-08-03T02:46:37;100801.06;;;19.90;100.00
51928;BME280;37953;52.806;18.270;2022-08-03T02:49:04;100800.25;;;19.88;100.00
51928;BME280;37953;52.806;18.270;2022-08-03T02:51:33;100794.94;;;19.90;100.00
51928;BME280;37953;52.806;18.270;2022-08-03T02:54:02;100803.69;;;19.90;100.00
51928;BME280;37953;52.806;18.270;2022-08-03T02:56:29;100796.69;;;19.89;100.00
51928;BME280;37953;52.806;18.270;2022-08-03T02:59:02;100801.06;;;19.90;100.00
51928;BME280;37953;52.806;18.270;2022-08-03T03:01:29;100801.88;;;19.92;100.00
51928;BME280;37953;52.806;18.270;2022-08-03T03:03:56;100792.28;;;19.90;100.00
51928;BME280;37953;52.806;18.270;2022-08-03T03:06:26;100796.56;;;19.94;100.00
51928;BME280;37953;52.806;18.270;2022-08-03T03:08:53;100799.09;;;19.97;100.00
51928;BME280;37953;52.806;18.270;2022-08-03T03:11:26;100804.34;;;19.99;100.00
51928;BME280;37953;52.806;18.270;2022-08-03T03:13:55;100801.69;;;19.99;100.00
51928;BME280;37953;52.806;18.270;2022-08-03T03:16:22;100798.19;;;19.98;100.00
51928;BME280;37953;52.806;18.270;2022-08-03T03:18:48;100792.00;;;19.99;100.00
51928;BME280;37953;52.806;18.270;2022-08-03T03:21:17;100793.66;;;20.02;100.00
51928;BME280;37953;52.806;18.270;2022-08-03T03:23:44;100791.84;;;20.04;100.00
51928;BME280;37953;52.806;18.270;2022-08-03T03:26:17;100790.03;;;20.06;100.00
51928;BME280;37953;52.806;18.270;2022-08-03T03:28:44;100790.06;;;20.04;100.00
51928;BME280;37953;52.806;18.270;2022-08-03T03:31:10;100797.03;;;20.07;100.00
51928;BME280;37953;52.806;18.270;2022-08-03T03:33:37;100803.13;;;20.09;100.00
51928;BME280;37953;52.806;18.270;2022-08-03T03:36:04;100796.13;;;20.08;100.00
51928;BME280;37953;52.806;18.270;2022-08-03T03:38:31;100799.56;;;20.10;100.00
51928;BME280;37953;52.806;18.270;2022-08-03T03:41:00;100796.16;;;20.06;100.00
51928;BME280;37953;52.806;18.270;2022-08-03T03:43:27;100797.97;;;20.04;100.00
51928;BME280;37953;52.806;18.270;2022-08-03T03:45:54;100799.56;;;20.10;100.00
51928;BME280;37953;52.806;18.270;2022-08-03T03:48:27;100802.16;;;20.11;100.00
51928;BME280;37953;52.806;18.270;2022-08-03T03:50:53;100805.66;;;20.12;100.00
51928;BME280;37953;52.806;18.270;2022-08-03T03:53:22;100797.78;;;20.10;100.00
51928;BME280;37953;52.806;18.270;2022-08-03T03:55:48;100814.41;;;20.14;100.00
51928;BME280;37953;52.806;18.270;2022-08-03T03:58:14;100820.50;;;20.16;100.00
51928;BME280;37953;52.806;18.270;2022-08-03T04:00:40;100812.53;;;20.18;100.00
51928;BME280;37953;52.806;18.270;2022-08-03T04:03:10;100815.09;;;20.19;100.00
51928;BME280;37953;52.806;18.270;2022-08-03T04:05:37;100821.25;;;20.20;100.00
51928;BME280;37953;52.806;18.270;2022-08-03T04:08:22;100822.06;;;20.22;100.00
51928;BME280;37953;52.806;18.270;2022-08-03T04:11:58;100835.94;;;20.28;100.00
51928;BME280;37953;52.806;18.270;2022-08-03T04:14:24;100833.84;;;20.38;100.00
51928;BME280;37953;52.806;18.270;2022-08-03T04:17:03;100827.16;;;20.28;100.00
51928;BME280;37953;52.806;18.270;2022-08-03T04:19:44;100831.56;;;20.27;100.00
51928;BME280;37953;52.806;18.270;2022-08-03T04:22:13;100837.78;;;20.25;100.00
51928;BME280;37953;52.806;18.270;2022-08-03T04:25:00;100837.84;;;20.23;100.00
51928;BME280;37953;52.806;18.270;2022-08-03T04:27:33;100842.22;;;20.24;100.00
51928;BME280;37953;52.806;18.270;2022-08-03T04:30:03;100848.34;;;20.25;100.00
51928;BME280;37953;52.806;18.270;2022-08-03T04:32:29;100844.84;;;20.24;100.00
51928;BME280;37953;52.806;18.270;2022-08-03T04:34:56;100848.38;;;20.23;100.00
51928;BME280;37953;52.806;18.270;2022-08-03T04:37:38;100850.91;;;20.28;100.00
51928;BME280;37953;52.806;18.270;2022-08-03T04:40:16;100848.19;;;20.29;100.00
51928;BME280;37953;52.806;18.270;2022-08-03T04:42:45;100856.19;;;20.28;100.00
51928;BME280;37953;52.806;18.270;2022-08-03T04:45:12;100855.28;;;20.27;100.00
51928;BME280;37953;52.806;18.270;2022-08-03T04:47:39;100855.25;;;20.29;100.00
51928;BME280;37953;52.806;18.270;2022-08-03T04:50:07;100858.72;;;20.31;100.00
51928;BME280;37953;52.806;18.270;2022-08-03T04:52:34;100861.31;;;20.32;100.00
51928;BME280;37953;52.806;18.270;2022-08-03T04:55:00;100860.38;;;20.33;100.00
51928;BME280;37953;52.806;18.270;2022-08-03T04:57:26;100856.84;;;20.34;100.00
51928;BME280;37953;52.806;18.270;2022-08-03T04:59:53;100866.44;;;20.37;100.00
51928;BME280;37953;52.806;18.270;2022-08-03T05:02:20;100857.59;;;20.38;100.00
51928;BME280;37953;52.806;18.270;2022-08-03T05:04:46;100864.56;;;20.41;100.00
51928;BME280;37953;52.806;18.270;2022-08-03T05:07:13;100865.41;;;20.43;100.00
51928;BME280;37953;52.806;18.270;2022-08-03T05:09:45;100866.13;;;20.46;100.00
51928;BME280;37953;52.806;18.270;2022-08-03T05:12:11;100860.00;;;20.46;100.00
51928;BME280;37953;52.806;18.270;2022-08-03T05:14:38;100859.97;;;20.47;100.00
51928;BME280;37953;52.806;18.270;2022-08-03T05:17:04;100859.91;;;20.49;100.00
51928;BME280;37953;52.806;18.270;2022-08-03T05:19:30;100855.50;;;20.49;100.00
51928;BME280;37953;52.806;18.270;2022-08-03T05:21:57;100855.50;;;20.49;100.00
51928;BME280;37953;52.806;18.270;2022-08-03T05:24:23;100862.50;;;20.50;100.00
51928;BME280;37953;52.806;18.270;2022-08-03T05:26:49;100853.72;;;20.50;100.00
51928;BME280;37953;52.806;18.270;2022-08-03T05:29:15;100861.63;;;20.50;100.00
51928;BME280;37953;52.806;18.270;2022-08-03T05:31:41;100860.69;;;20.51;100.00
51928;BME280;37953;52.806;18.270;2022-08-03T05:34:07;100862.41;;;20.53;100.00
51928;BME280;37953;52.806;18.270;2022-08-03T05:36:33;100864.06;;;20.56;100.00
51928;BME280;37953;52.806;18.270;2022-08-03T05:38:59;100863.13;;;20.59;100.00
51928;BME280;37953;52.806;18.270;2022-08-03T05:41:25;100868.34;;;20.62;100.00
51928;BME280;37953;52.806;18.270;2022-08-03T05:43:52;100852.53;;;20.60;100.00
51928;BME280;37953;52.806;18.270;2022-08-03T05:46:19;100869.91;;;20.67;100.00
51928;BME280;37953;52.806;18.270;2022-08-03T05:48:46;100869.81;;;20.70;100.00
51928;BME280;37953;52.806;18.270;2022-08-03T05:51:15;100873.25;;;20.72;100.00
51928;BME280;37953;52.806;18.270;2022-08-03T05:53:41;100876.63;;;20.76;100.00
51928;BME280;37953;52.806;18.270;2022-08-03T05:56:08;100880.06;;;20.80;100.00
51928;BME280;37953;52.806;18.270;2022-08-03T05:58:35;100876.50;;;20.81;100.00
51928;BME280;37953;52.806;18.270;2022-08-03T06:01:00;100875.53;;;20.83;100.00
51928;BME280;37953;52.806;18.270;2022-08-03T06:03:29;100873.75;;;20.84;100.00
51928;BME280;37953;52.806;18.270;2022-08-03T06:05:56;100879.84;;;20.86;100.00
51928;BME280;37953;52.806;18.270;2022-08-03T06:08:22;100879.84;;;20.86;100.00
51928;BME280;37953;52.806;18.270;2022-08-03T06:10:49;100875.44;;;20.86;100.00
51928;BME280;37953;52.806;18.270;2022-08-03T06:13:15;100886.84;;;20.87;100.00
51928;BME280;37953;52.806;18.270;2022-08-03T06:15:41;100884.13;;;20.90;100.00
51928;BME280;37953;52.806;18.270;2022-08-03T06:18:08;100884.06;;;20.91;100.00
51928;BME280;37953;52.806;18.270;2022-08-03T06:20:36;100883.97;;;20.94;100.00
51928;BME280;37953;52.806;18.270;2022-08-03T06:23:02;100881.16;;;20.99;100.00
51928;BME280;37953;52.806;18.270;2022-08-03T06:25:28;100879.25;;;21.04;100.00
51928;BME280;37953;52.806;18.270;2022-08-03T06:27:55;100885.22;;;21.09;100.00
51928;BME280;37953;52.806;18.270;2022-08-03T06:30:21;100882.41;;;21.14;100.00
51928;BME280;37953;52.806;18.270;2022-08-03T06:32:47;100878.78;;;21.17;100.00
51928;BME280;37953;52.806;18.270;2022-08-03T06:35:13;100881.22;;;21.23;100.00
51928;BME280;37953;52.806;18.270;2022-08-03T06:37:52;100874.88;;;21.28;100.00
51928;BME280;37953;52.806;18.270;2022-08-03T06:40:20;100872.06;;;21.33;100.00
51928;BME280;37953;52.806;18.270;2022-08-03T06:42:55;100889.50;;;21.39;100.00
51928;BME280;37953;52.806;18.270;2022-08-03T06:45:21;100886.72;;;21.43;100.00
51928;BME280;37953;52.806;18.270;2022-08-03T06:48:05;100890.06;;;21.48;100.00
51928;BME280;37953;52.806;18.270;2022-08-03T06:50:50;100892.47;;;21.54;100.00
51928;BME280;37953;52.806;18.270;2022-08-03T06:53:16;100888.75;;;21.60;100.00
51928;BME280;37953;52.806;18.270;2022-08-03T06:55:42;100899.09;;;21.66;100.00
51928;BME280;37953;52.806;18.270;2022-08-03T06:58:08;100888.41;;;21.69;100.00
51928;BME280;37953;52.806;18.270;2022-08-03T07:00:34;100891.72;;;21.76;100.00
51928;BME280;37953;52.806;18.270;2022-08-03T07:03:00;100895.88;;;21.82;100.00
51928;BME280;37953;52.806;18.270;2022-08-03T07:05:26;100894.09;;;21.82;100.00
51928;BME280;37953;52.806;18.270;2022-08-03T07:07:55;100898.25;;;21.89;100.00
51928;BME280;37953;52.806;18.270;2022-08-03T07:10:26;100902.50;;;21.93;100.00
51928;BME280;37953;52.806;18.270;2022-08-03T07:12:53;100900.63;;;21.97;100.00
51928;BME280;37953;52.806;18.270;2022-08-03T07:15:19;100896.91;;;22.01;100.00
51928;BME280;37953;52.806;18.270;2022-08-03T07:17:45;100906.47;;;22.05;100.00
51928;BME280;37953;52.806;18.270;2022-08-03T07:20:11;100903.66;;;22.10;100.00
51928;BME280;37953;52.806;18.270;2022-08-03T07:22:39;100903.53;;;22.13;100.00
51928;BME280;37953;52.806;18.270;2022-08-03T07:25:06;100906.94;;;22.16;100.00
51928;BME280;37953;52.806;18.270;2022-08-03T07:27:32;100903.28;;;22.19;100.00
51928;BME280;37953;52.806;18.270;2022-08-03T07:29:58;100904.88;;;22.25;100.00
51928;BME280;37953;52.806;18.270;2022-08-03T07:32:24;100901.25;;;22.27;100.00
51928;BME280;37953;52.806;18.270;2022-08-03T07:34:51;100908.19;;;22.30;100.00
51928;BME280;37953;52.806;18.270;2022-08-03T07:37:17;100900.25;;;22.30;100.00
51928;BME280;37953;52.806;18.270;2022-08-03T07:39:43;100902.72;;;22.34;100.00
51928;BME280;37953;52.806;18.270;2022-08-03T07:42:09;100901.69;;;22.39;100.00
51928;BME280;37953;52.806;18.270;2022-08-03T07:44:35;100898.97;;;22.40;100.00
51928;BME280;37953;52.806;18.270;2022-08-03T07:47:01;100905.88;;;22.44;100.00
51928;BME280;37953;52.806;18.270;2022-08-03T07:49:28;100900.41;;;22.49;100.00
51928;BME280;37953;52.806;18.270;2022-08-03T07:51:54;100898.50;;;22.52;100.00
51928;BME280;37953;52.806;18.270;2022-08-03T07:54:39;100897.47;;;22.56;100.00
51928;BME280;37953;52.806;18.270;2022-08-03T07:57:05;100894.72;;;22.58;100.00
51928;BME280;37953;52.806;18.270;2022-08-03T07:59:31;100894.56;;;22.63;100.00
51928;BME280;37953;52.806;18.270;2022-08-03T08:01:57;100902.31;;;22.67;100.00
51928;BME280;37953;52.806;18.270;2022-08-03T08:04:23;100897.69;;;22.72;100.00
51928;BME280;37953;52.806;18.270;2022-08-03T08:06:49;100897.56;;;22.75;100.00
51928;BME280;37953;52.806;18.270;2022-08-03T08:09:15;100896.53;;;22.80;100.00
51928;BME280;37953;52.806;18.270;2022-08-03T08:11:41;100898.09;;;22.84;100.00
51928;BME280;37953;52.806;18.270;2022-08-03T08:14:07;100901.47;;;22.87;100.00
51928;BME280;37953;52.806;18.270;2022-08-03T08:16:34;100894.28;;;22.91;100.00
51928;BME280;37953;52.806;18.270;2022-08-03T08:19:00;100895.94;;;22.93;100.00
51928;BME280;37953;52.806;18.270;2022-08-03T08:21:27;100896.72;;;22.95;100.00
51928;BME280;37953;52.806;18.270;2022-08-03T08:23:53;100900.94;;;23.01;100.00
51928;BME280;37953;52.806;18.270;2022-08-03T08:26:19;100892.91;;;23.03;100.00
51928;BME280;37953;52.806;18.270;2022-08-03T08:28:45;100898.03;;;23.07;100.00
51928;BME280;37953;52.806;18.270;2022-08-03T08:31:11;100890.75;;;23.12;100.00
51928;BME280;37953;52.806;18.270;2022-08-03T08:33:37;100895.03;;;23.15;100.00
51928;BME280;37953;52.806;18.270;2022-08-03T08:36:03;100894.00;;;23.19;100.00
51928;BME280;37953;52.806;18.270;2022-08-03T08:38:29;100893.06;;;23.20;100.00
51928;BME280;37953;52.806;18.270;2022-08-03T08:40:55;100890.34;;;23.22;100.00
51928;BME280;37953;52.806;18.270;2022-08-03T08:43:21;100893.78;;;23.24;100.00
51928;BME280;37953;52.806;18.270;2022-08-03T08:45:48;100886.63;;;23.26;100.00
51928;BME280;37953;52.806;18.270;2022-08-03T08:48:21;100889.16;;;23.29;100.00
51928;BME280;37953;52.806;18.270;2022-08-03T08:50:53;100889.97;;;23.31;98.41
51928;BME280;37953;52.806;18.270;2022-08-03T08:53:20;100889.75;;;23.35;97.26
51928;BME280;37953;52.806;18.270;2022-08-03T08:55:48;100896.66;;;23.40;97.22
51928;BME280;37953;52.806;18.270;2022-08-03T08:58:15;100899.16;;;23.43;94.28
51928;BME280;37953;52.806;18.270;2022-08-03T09:00:46;100901.69;;;23.46;94.34
51928;BME280;37953;52.806;18.270;2022-08-03T09:03:13;100905.03;;;23.49;92.57
51928;BME280;37953;52.806;18.270;2022-08-03T09:05:42;100900.34;;;23.56;91.19
51928;BME280;37953;52.806;18.270;2022-08-03T09:08:08;100901.94;;;23.60;91.37
51928;BME280;37953;52.806;18.270;2022-08-03T09:10:40;100896.53;;;23.62;89.38
51928;BME280;37953;52.806;18.270;2022-08-03T09:13:07;100897.34;;;23.64;86.69
51928;BME280;37953;52.806;18.270;2022-08-03T09:15:33;100898.13;;;23.66;83.62
51928;BME280;37953;52.806;18.270;2022-08-03T09:18:01;100892.75;;;23.67;83.46
51928;BME280;37953;52.806;18.270;2022-08-03T09:20:29;100898.72;;;23.72;78.98
51928;BME280;37953;52.806;18.270;2022-08-03T09:23:00;100902.13;;;23.76;78.65
51928;BME280;37953;52.806;18.270;2022-08-03T09:25:32;100893.25;;;23.77;78.13
51928;BME280;37953;52.806;18.270;2022-08-03T09:28:19;100893.88;;;23.82;79.98
51928;BME280;37953;52.806;18.270;2022-08-03T09:30:57;100897.28;;;23.86;80.37
51928;BME280;37953;52.806;18.270;2022-08-03T09:33:29;100890.91;;;23.90;80.55
51928;BME280;37953;52.806;18.270;2022-08-03T09:35:55;100898.75;;;23.91;79.21
51928;BME280;37953;52.806;18.270;2022-08-03T09:38:22;100899.50;;;23.95;80.32
51928;BME280;37953;52.806;18.270;2022-08-03T09:40:51;100893.97;;;24.00;80.45
51928;BME280;37953;52.806;18.270;2022-08-03T09:43:20;100887.59;;;24.04;80.92
51928;BME280;37953;52.806;18.270;2022-08-03T09:45:47;100893.63;;;24.07;78.50
51928;BME280;37953;52.806;18.270;2022-08-03T09:48:31;100892.59;;;24.10;76.29
51928;BME280;37953;52.806;18.270;2022-08-03T09:51:07;100894.19;;;24.14;75.55
51928;BME280;37953;52.806;18.270;2022-08-03T09:53:47;100888.81;;;24.15;76.04
51928;BME280;37953;52.806;18.270;2022-08-03T09:56:13;100881.53;;;24.19;76.02
51928;BME280;37953;52.806;18.270;2022-08-03T09:58:46;100884.91;;;24.23;78.59
51928;BME280;37953;52.806;18.270;2022-08-03T10:01:12;100882.19;;;24.24;78.11
51928;BME280;37953;52.806;18.270;2022-08-03T10:03:39;100878.59;;;24.25;78.78
51928;BME280;37953;52.806;18.270;2022-08-03T10:06:16;100875.81;;;24.28;79.86
51928;BME280;37953;52.806;18.270;2022-08-03T10:08:44;100878.31;;;24.31;80.22
51928;BME280;37953;52.806;18.270;2022-08-03T10:11:11;100877.38;;;24.32;80.42
51928;BME280;37953;52.806;18.270;2022-08-03T10:13:37;100879.81;;;24.37;79.99
51928;BME280;37953;52.806;18.270;2022-08-03T10:16:04;100868.13;;;24.41;78.78
51928;BME280;37953;52.806;18.270;2022-08-03T10:18:31;100875.00;;;24.45;79.77
51928;BME280;37953;52.806;18.270;2022-08-03T10:21:02;100871.19;;;24.51;81.13
51928;BME280;37953;52.806;18.270;2022-08-03T10:23:37;100864.66;;;24.58;80.32
51928;BME280;37953;52.806;18.270;2022-08-03T10:26:09;100874.09;;;24.64;79.56
51928;BME280;37953;52.806;18.270;2022-08-03T10:28:40;100870.16;;;24.72;80.79
51928;BME280;37953;52.806;18.270;2022-08-03T10:31:13;100862.81;;;24.77;81.37
51928;BME280;37953;52.806;18.270;2022-08-03T10:33:48;100863.59;;;24.79;79.66
51928;BME280;37953;52.806;18.270;2022-08-03T10:36:15;100864.38;;;24.82;78.50
51928;BME280;37953;52.806;18.270;2022-08-03T10:38:48;100859.91;;;24.82;78.19
51928;BME280;37953;52.806;18.270;2022-08-03T10:41:19;100861.34;;;24.89;79.31
51928;BME280;37953;52.806;18.270;2022-08-03T10:44:06;100865.38;;;24.96;78.91
51928;BME280;37953;52.806;18.270;2022-08-03T10:46:34;100860.78;;;25.00;78.43
51928;BME280;37953;52.806;18.270;2022-08-03T10:49:02;100857.09;;;25.03;78.14
51928;BME280;37953;52.806;18.270;2022-08-03T10:51:28;100861.56;;;25.02;75.63
51928;BME280;37953;52.806;18.270;2022-08-03T10:53:58;100864.06;;;25.05;73.64
51928;BME280;37953;52.806;18.270;2022-08-03T10:56:38;100863.03;;;25.08;73.10
51928;BME280;37953;52.806;18.270;2022-08-03T11:02:10;100860.91;;;25.14;73.70
51928;BME280;37953;52.806;18.270;2022-08-03T11:04:39;100859.03;;;25.16;73.95
51928;BME280;37953;52.806;18.270;2022-08-03T11:09:45;100860.41;;;25.25;74.70
51928;BME280;37953;52.806;18.270;2022-08-03T11:14:54;100856.22;;;25.37;74.08
51928;BME280;37953;52.806;18.270;2022-08-03T11:17:20;100857.88;;;25.39;71.84
51928;BME280;37953;52.806;18.270;2022-08-03T11:19:51;100847.84;;;25.45;70.79
51928;BME280;37953;52.806;18.270;2022-08-03T11:22:19;100848.38;;;25.51;72.68
51928;BME280;37953;52.806;18.270;2022-08-03T11:27:35;100847.63;;;25.65;73.92
51928;BME280;37953;52.806;18.270;2022-08-03T11:30:08;100844.56;;;25.73;70.78
51928;BME280;37953;52.806;18.270;2022-08-03T11:35:55;100833.50;;;25.80;71.85
51928;BME280;37953;52.806;18.270;2022-08-03T11:38:03;100839.28;;;25.89;72.35
51928;BME280;37953;52.806;18.270;2022-08-03T11:40:49;100837.41;;;25.91;71.25
51928;BME280;37953;52.806;18.270;2022-08-03T11:46:10;100837.03;;;25.97;72.05
51928;BME280;37953;52.806;18.270;2022-08-03T11:48:47;100838.59;;;26.01;72.85
51928;BME280;37953;52.806;18.270;2022-08-03T11:54:02;100844.25;;;26.11;73.51
51928;BME280;37953;52.806;18.270;2022-08-03T11:56:43;100839.63;;;26.14;70.19
51928;BME280;37953;52.806;18.270;2022-08-03T11:59:30;100839.53;;;26.16;71.01
51928;BME280;37953;52.806;18.270;2022-08-03T12:02:07;100836.50;;;26.22;67.72
51928;BME280;37953;52.806;18.270;2022-08-03T12:04:56;100828.19;;;26.28;68.20
51928;BME280;37953;52.806;18.270;2022-08-03T12:07:27;100829.56;;;26.35;72.26
51928;BME280;37953;52.806;18.270;2022-08-03T12:10:10;100833.56;;;26.43;70.88
51928;BME280;37953;52.806;18.270;2022-08-03T12:12:37;100833.38;;;26.46;70.12
51928;BME280;37953;52.806;18.270;2022-08-03T12:15:05;100827.13;;;26.47;67.80
51928;BME280;37953;52.806;18.270;2022-08-03T12:17:39;100828.94;;;26.46;66.30
51928;BME280;37953;52.806;18.270;2022-08-03T12:20:15;100822.91;;;26.43;66.96
51928;BME280;37953;52.806;18.270;2022-08-03T12:22:45;100824.81;;;26.40;68.17
51928;BME280;37953;52.806;18.270;2022-08-03T12:25:21;100824.81;;;26.40;68.75
51928;BME280;37953;52.806;18.270;2022-08-03T12:27:47;100817.00;;;26.37;67.44
51928;BME280;37953;52.806;18.270;2022-08-03T12:30:14;100823.34;;;26.35;67.12
51928;BME280;37953;52.806;18.270;2022-08-03T12:32:41;100817.94;;;26.36;69.85
51928;BME280;37953;52.806;18.270;2022-08-03T12:35:08;100816.06;;;26.38;71.06
51928;BME280;37953;52.806;18.270;2022-08-03T12:37:35;100809.69;;;26.41;70.38
51928;BME280;37953;52.806;18.270;2022-08-03T12:40:03;100809.31;;;26.47;69.40
51928;BME280;37953;52.806;18.270;2022-08-03T12:42:36;100805.47;;;26.53;68.65
51928;BME280;37953;52.806;18.270;2022-08-03T12:45:27;100806.91;;;26.58;67.50
51928;BME280;37953;52.806;18.270;2022-08-03T12:47:58;100809.34;;;26.63;68.96
51928;BME280;37953;52.806;18.270;2022-08-03T12:50:27;100801.91;;;26.68;66.83
51928;BME280;37953;52.806;18.270;2022-08-03T12:52:55;100807.06;;;26.71;69.02
51928;BME280;37953;52.806;18.270;2022-08-03T12:55:21;100797.84;;;26.77;69.12
51928;BME280;37953;52.806;18.270;2022-08-03T12:58:05;100804.63;;;26.83;68.40
51928;BME280;37953;52.806;18.270;2022-08-03T13:00:31;100789.09;;;26.89;67.40
51928;BME280;37953;52.806;18.270;2022-08-03T13:02:59;100793.38;;;26.92;66.51
51928;BME280;37953;52.806;18.270;2022-08-03T13:05:26;100797.50;;;26.97;66.59
51928;BME280;37953;52.806;18.270;2022-08-03T13:07:58;100790.94;;;27.03;66.92
51928;BME280;37953;52.806;18.270;2022-08-03T13:10:32;100794.19;;;27.08;65.60
51928;BME280;37953;52.806;18.270;2022-08-03T13:13:02;100792.84;;;27.15;66.08
51928;BME280;37953;52.806;18.270;2022-08-03T13:15:29;100788.94;;;27.21;65.34
51928;BME280;37953;52.806;18.270;2022-08-03T13:17:55;100788.59;;;27.27;66.19